sensor_id;sensor_type;location;lat;lon;timestamp;P1;durP1;ratioP1;P2;durP2;ratioP2
7074;SDS011;3578;51.568;6.932;2022-07-22T00:01:58;7.20;;;3.90;;
7074;SDS011;3578;51.568;6.932;2022-07-22T00:04:25;7.90;;;3.90;;
7074;SDS011;3578;51.568;6.932;2022-07-22T00:06:52;4.47;;;3.63;;
7074;SDS011;3578;51.568;6.932;2022-07-22T00:09:21;4.80;;;3.40;;
7074;SDS011;3578;51.568;6.932;2022-07-22T00:11:48;6.23;;;3.77;;
7074;SDS011;3578;51.568;6.932;2022-07-22T00:14:15;6.20;;;4.00;;
7074;SDS011;3578;51.568;6.932;2022-07-22T00:16:42;5.03;;;3.53;;
7074;SDS011;3578;51.568;6.932;2022-07-22T00:19:09;9.97;;;4.20;;
7074;SDS011;3578;51.568;6.932;2022-07-22T00:21:36;6.80;;;3.50;;
7074;SDS011;3578;51.568;6.932;2022-07-22T00:24:04;3.67;;;3.30;;
7074;SDS011;3578;51.568;6.932;2022-07-22T00:26:33;5.57;;;4.33;;
7074;SDS011;3578;51.568;6.932;2022-07-22T00:29:00;4.80;;;3.70;;
7074;SDS011;3578;51.568;6.932;2022-07-22T00:31:27;3.70;;;3.40;;
7074;SDS011;3578;51.568;6.932;2022-07-22T00:33:55;6.23;;;4.10;;
7074;SDS011;3578;51.568;6.932;2022-07-22T00:36:22;8.33;;;3.40;;
7074;SDS011;3578;51.568;6.932;2022-07-22T00:38:50;3.67;;;3.30;;
7074;SDS011;3578;51.568;6.932;2022-07-22T00:41:17;9.07;;;3.93;;
7074;SDS011;3578;51.568;6.932;2022-07-22T00:43:53;4.20;;;2.60;;
7074;SDS011;3578;51.568;6.932;2022-07-22T00:46:24;6.77;;;3.87;;
7074;SDS011;3578;51.568;6.932;2022-07-22T00:48:52;4.50;;;3.20;;
7074;SDS011;3578;51.568;6.932;2022-07-22T00:51:21;3.27;;;2.97;;
7074;SDS011;3578;51.568;6.932;2022-07-22T00:53:49;7.40;;;3.77;;
7074;SDS011;3578;51.568;6.932;2022-07-22T00:56:18;3.70;;;2.50;;
7074;SDS011;3578;51.568;6.932;2022-07-22T00:58:46;4.73;;;2.93;;
7074;SDS011;3578;51.568;6.932;2022-07-22T01:01:17;4.03;;;3.73;;
7074;SDS011;3578;51.568;6.932;2022-07-22T01:03:45;3.37;;;3.07;;
7074;SDS011;3578;51.568;6.932;2022-07-22T01:06:13;6.77;;;3.07;;
7074;SDS011;3578;51.568;6.932;2022-07-22T01:08:40;4.47;;;2.60;;
7074;SDS011;3578;51.568;6.932;2022-07-22T01:11:09;8.30;;;2.80;;
7074;SDS011;3578;51.568;6.932;2022-07-22T01:13:38;3.00;;;2.80;;
7074;SDS011;3578;51.568;6.932;2022-07-22T01:16:07;5.60;;;3.20;;
7074;SDS011;3578;51.568;6.932;2022-07-22T01:18:38;7.70;;;3.60;;
7074;SDS011;3578;51.568;6.932;2022-07-22T01:21:07;3.77;;;2.67;;
7074;SDS011;3578;51.568;6.932;2022-07-22T01:23:36;12.13;;;3.40;;
7074;SDS011;3578;51.568;6.932;2022-07-22T01:26:04;5.77;;;2.97;;
7074;SDS011;3578;51.568;6.932;2022-07-22T01:28:31;8.40;;;2.90;;
7074;SDS011;3578;51.568;6.932;2022-07-22T01:30:59;4.43;;;2.83;;
7074;SDS011;3578;51.568;6.932;2022-07-22T01:33:26;4.07;;;2.90;;
7074;SDS011;3578;51.568;6.932;2022-07-22T01:35:53;5.23;;;2.60;;
7074;SDS011;3578;51.568;6.932;2022-07-22T01:38:22;4.37;;;2.53;;
7074;SDS011;3578;51.568;6.932;2022-07-22T01:40:49;6.43;;;3.30;;
7074;SDS011;3578;51.568;6.932;2022-07-22T01:43:17;8.00;;;3.03;;
7074;SDS011;3578;51.568;6.932;2022-07-22T01:45:46;4.40;;;3.30;;
7074;SDS011;3578;51.568;6.932;2022-07-22T01:48:17;3.83;;;3.40;;
7074;SDS011;3578;51.568;6.932;2022-07-22T01:50:44;3.13;;;2.83;;
7074;SDS011;3578;51.568;6.932;2022-07-22T01:53:12;4.90;;;3.30;;
7074;SDS011;3578;51.568;6.932;2022-07-22T01:55:41;3.87;;;3.30;;
7074;SDS011;3578;51.568;6.932;2022-07-22T01:58:08;7.00;;;3.23;;
7074;SDS011;3578;51.568;6.932;2022-07-22T02:00:35;4.67;;;4.13;;
7074;SDS011;3578;51.568;6.932;2022-07-22T02:03:03;7.30;;;3.77;;
7074;SDS011;3578;51.568;6.932;2022-07-22T02:05:31;3.93;;;3.60;;
7074;SDS011;3578;51.568;6.932;2022-07-22T02:07:59;8.87;;;4.20;;
7074;SDS011;3578;51.568;6.932;2022-07-22T02:10:27;5.80;;;4.03;;
7074;SDS011;3578;51.568;6.932;2022-07-22T02:12:57;5.07;;;4.57;;
7074;SDS011;3578;51.568;6.932;2022-07-22T02:15:25;5.37;;;3.90;;
7074;SDS011;3578;51.568;6.932;2022-07-22T02:17:52;6.70;;;4.17;;
7074;SDS011;3578;51.568;6.932;2022-07-22T02:20:19;4.27;;;3.63;;
7074;SDS011;3578;51.568;6.932;2022-07-22T02:22:46;6.43;;;4.40;;
7074;SDS011;3578;51.568;6.932;2022-07-22T02:25:13;5.40;;;3.40;;
7074;SDS011;3578;51.568;6.932;2022-07-22T02:27:41;8.73;;;3.57;;
7074;SDS011;3578;51.568;6.932;2022-07-22T02:30:10;3.93;;;3.63;;
7074;SDS011;3578;51.568;6.932;2022-07-22T02:32:38;4.20;;;3.80;;
7074;SDS011;3578;51.568;6.932;2022-07-22T02:35:05;3.43;;;3.20;;
7074;SDS011;3578;51.568;6.932;2022-07-22T02:37:33;4.30;;;3.67;;
7074;SDS011;3578;51.568;6.932;2022-07-22T02:40:02;5.40;;;3.33;;
7074;SDS011;3578;51.568;6.932;2022-07-22T02:42:32;7.00;;;3.37;;
7074;SDS011;3578;51.568;6.932;2022-07-22T02:45:00;3.30;;;3.00;;
7074;SDS011;3578;51.568;6.932;2022-07-22T02:47:29;5.50;;;4.37;;
7074;SDS011;3578;51.568;6.932;2022-07-22T02:49:56;11.03;;;3.20;;
7074;SDS011;3578;51.568;6.932;2022-07-22T02:52:23;3.90;;;3.60;;
7074;SDS011;3578;51.568;6.932;2022-07-22T02:54:50;7.40;;;3.63;;
7074;SDS011;3578;51.568;6.932;2022-07-22T02:57:17;6.50;;;3.20;;
7074;SDS011;3578;51.568;6.932;2022-07-22T02:59:44;9.73;;;3.20;;
7074;SDS011;3578;51.568;6.932;2022-07-22T03:02:12;11.03;;;3.63;;
7074;SDS011;3578;51.568;6.932;2022-07-22T03:04:41;6.70;;;3.77;;
7074;SDS011;3578;51.568;6.932;2022-07-22T03:07:08;6.77;;;3.70;;
7074;SDS011;3578;51.568;6.932;2022-07-22T03:09:35;6.60;;;3.50;;
7074;SDS011;3578;51.568;6.932;2022-07-22T03:12:02;5.87;;;3.73;;
7074;SDS011;3578;51.568;6.932;2022-07-22T03:14:29;7.50;;;3.30;;
7074;SDS011;3578;51.568;6.932;2022-07-22T03:16:56;4.07;;;3.77;;
7074;SDS011;3578;51.568;6.932;2022-07-22T03:19:23;7.33;;;3.53;;
7074;SDS011;3578;51.568;6.932;2022-07-22T03:21:52;6.53;;;3.77;;
7074;SDS011;3578;51.568;6.932;2022-07-22T03:24:19;7.10;;;3.20;;
7074;SDS011;3578;51.568;6.932;2022-07-22T03:26:46;8.10;;;3.40;;
7074;SDS011;3578;51.568;6.932;2022-07-22T03:29:13;6.43;;;4.30;;
7074;SDS011;3578;51.568;6.932;2022-07-22T03:31:40;8.93;;;3.87;;
7074;SDS011;3578;51.568;6.932;2022-07-22T03:34:07;8.10;;;4.00;;
7074;SDS011;3578;51.568;6.932;2022-07-22T03:36:34;7.13;;;3.07;;
7074;SDS011;3578;51.568;6.932;2022-07-22T03:39:02;12.57;;;3.90;;
7074;SDS011;3578;51.568;6.932;2022-07-22T03:41:30;4.87;;;3.40;;
7074;SDS011;3578;51.568;6.932;2022-07-22T03:43:57;3.80;;;3.47;;
7074;SDS011;3578;51.568;6.932;2022-07-22T03:46:24;4.43;;;4.03;;
7074;SDS011;3578;51.568;6.932;2022-07-22T03:48:51;4.37;;;3.93;;
7074;SDS011;3578;51.568;6.932;2022-07-22T03:51:18;5.83;;;3.93;;
7074;SDS011;3578;51.568;6.932;2022-07-22T03:53:45;9.23;;;3.30;;
7074;SDS011;3578;51.568;6.932;2022-07-22T03:56:13;9.63;;;4.60;;
7074;SDS011;3578;51.568;6.932;2022-07-22T03:58:41;5.10;;;4.60;;
7074;SDS011;3578;51.568;6.932;2022-07-22T04:01:08;8.17;;;3.80;;
7074;SDS011;3578;51.568;6.932;2022-07-22T04:03:35;7.53;;;4.10;;
7074;SDS011;3578;51.568;6.932;2022-07-22T04:06:02;8.17;;;4.27;;
7074;SDS011;3578;51.568;6.932;2022-07-22T04:08:31;5.80;;;4.07;;
7074;SDS011;3578;51.568;6.932;2022-07-22T04:10:58;7.90;;;4.00;;
7074;SDS011;3578;51.568;6.932;2022-07-22T04:13:27;14.10;;;5.03;;
7074;SDS011;3578;51.568;6.932;2022-07-22T04:15:54;5.27;;;4.00;;
7074;SDS011;3578;51.568;6.932;2022-07-22T04:18:21;4.90;;;4.37;;
7074;SDS011;3578;51.568;6.932;2022-07-22T04:20:48;5.80;;;4.00;;
7074;SDS011;3578;51.568;6.932;2022-07-22T04:23:15;7.90;;;4.07;;
7074;SDS011;3578;51.568;6.932;2022-07-22T04:25:43;5.63;;;4.10;;
7074;SDS011;3578;51.568;6.932;2022-07-22T04:28:10;10.20;;;4.80;;
7074;SDS011;3578;51.568;6.932;2022-07-22T04:30:39;4.23;;;3.83;;
7074;SDS011;3578;51.568;6.932;2022-07-22T04:33:06;9.43;;;4.37;;
7074;SDS011;3578;51.568;6.932;2022-07-22T04:35:33;10.97;;;4.70;;
7074;SDS011;3578;51.568;6.932;2022-07-22T04:38:00;6.87;;;4.47;;
7074;SDS011;3578;51.568;6.932;2022-07-22T04:40:27;6.57;;;4.43;;
7074;SDS011;3578;51.568;6.932;2022-07-22T04:42:54;6.07;;;4.13;;
7074;SDS011;3578;51.568;6.932;2022-07-22T04:45:21;4.10;;;3.40;;
7074;SDS011;3578;51.568;6.932;2022-07-22T04:47:50;9.43;;;3.67;;
7074;SDS011;3578;51.568;6.932;2022-07-22T04:50:17;7.73;;;3.90;;
7074;SDS011;3578;51.568;6.932;2022-07-22T04:52:44;11.40;;;4.20;;
7074;SDS011;3578;51.568;6.932;2022-07-22T04:55:11;6.10;;;4.00;;
7074;SDS011;3578;51.568;6.932;2022-07-22T04:57:38;7.23;;;4.43;;
7074;SDS011;3578;51.568;6.932;2022-07-22T05:00:06;9.23;;;4.30;;
7074;SDS011;3578;51.568;6.932;2022-07-22T05:02:34;6.17;;;4.20;;
7074;SDS011;3578;51.568;6.932;2022-07-22T05:05:02;5.60;;;4.23;;
7074;SDS011;3578;51.568;6.932;2022-07-22T05:07:30;5.37;;;4.20;;
7074;SDS011;3578;51.568;6.932;2022-07-22T05:09:57;8.53;;;3.57;;
7074;SDS011;3578;51.568;6.932;2022-07-22T05:12:24;6.37;;;4.70;;
7074;SDS011;3578;51.568;6.932;2022-07-22T05:14:51;6.73;;;4.40;;
7074;SDS011;3578;51.568;6.932;2022-07-22T05:17:18;4.77;;;3.90;;
7074;SDS011;3578;51.568;6.932;2022-07-22T05:19:45;7.30;;;4.30;;
7074;SDS011;3578;51.568;6.932;2022-07-22T05:22:14;5.10;;;4.00;;
7074;SDS011;3578;51.568;6.932;2022-07-22T05:24:41;10.60;;;4.70;;
7074;SDS011;3578;51.568;6.932;2022-07-22T05:27:08;14.63;;;3.87;;
7074;SDS011;3578;51.568;6.932;2022-07-22T05:29:35;8.23;;;4.63;;
7074;SDS011;3578;51.568;6.932;2022-07-22T05:32:01;8.73;;;4.70;;
7074;SDS011;3578;51.568;6.932;2022-07-22T05:34:29;6.80;;;3.80;;
7074;SDS011;3578;51.568;6.932;2022-07-22T05:36:56;7.57;;;4.00;;
7074;SDS011;3578;51.568;6.932;2022-07-22T05:39:25;11.30;;;4.47;;
7074;SDS011;3578;51.568;6.932;2022-07-22T05:41:52;3.50;;;3.20;;
7074;SDS011;3578;51.568;6.932;2022-07-22T05:44:19;5.83;;;3.60;;
7074;SDS011;3578;51.568;6.932;2022-07-22T05:46:46;8.63;;;4.23;;
7074;SDS011;3578;51.568;6.932;2022-07-22T05:49:13;7.40;;;3.63;;
7074;SDS011;3578;51.568;6.932;2022-07-22T05:51:40;10.17;;;3.90;;
7074;SDS011;3578;51.568;6.932;2022-07-22T05:54:07;6.13;;;3.87;;
7074;SDS011;3578;51.568;6.932;2022-07-22T05:56:35;6.70;;;3.33;;
7074;SDS011;3578;51.568;6.932;2022-07-22T05:59:02;7.13;;;3.40;;
7074;SDS011;3578;51.568;6.932;2022-07-22T06:01:29;6.80;;;3.10;;
7074;SDS011;3578;51.568;6.932;2022-07-22T06:03:56;24.93;;;4.17;;
7074;SDS011;3578;51.568;6.932;2022-07-22T06:06:23;7.43;;;3.40;;
7074;SDS011;3578;51.568;6.932;2022-07-22T06:08:50;6.13;;;3.80;;
7074;SDS011;3578;51.568;6.932;2022-07-22T06:11:17;5.60;;;3.77;;
7074;SDS011;3578;51.568;6.932;2022-07-22T06:13:45;7.20;;;3.60;;
7074;SDS011;3578;51.568;6.932;2022-07-22T06:16:12;12.13;;;4.80;;
7074;SDS011;3578;51.568;6.932;2022-07-22T06:18:39;8.40;;;4.30;;
7074;SDS011;3578;51.568;6.932;2022-07-22T06:21:06;3.50;;;3.20;;
7074;SDS011;3578;51.568;6.932;2022-07-22T06:23:33;5.67;;;3.93;;
7074;SDS011;3578;51.568;6.932;2022-07-22T06:26:00;4.27;;;3.50;;
7074;SDS011;3578;51.568;6.932;2022-07-22T06:28:27;9.33;;;4.10;;
7074;SDS011;3578;51.568;6.932;2022-07-22T06:30:56;5.87;;;3.70;;
7074;SDS011;3578;51.568;6.932;2022-07-22T06:33:23;6.57;;;3.30;;
7074;SDS011;3578;51.568;6.932;2022-07-22T06:35:50;8.50;;;3.97;;
7074;SDS011;3578;51.568;6.932;2022-07-22T06:38:17;6.57;;;3.60;;
7074;SDS011;3578;51.568;6.932;2022-07-22T06:40:44;6.03;;;3.90;;
7074;SDS011;3578;51.568;6.932;2022-07-22T06:43:11;6.63;;;3.50;;
7074;SDS011;3578;51.568;6.932;2022-07-22T06:45:38;10.33;;;3.90;;
7074;SDS011;3578;51.568;6.932;2022-07-22T06:48:06;8.33;;;3.40;;
7074;SDS011;3578;51.568;6.932;2022-07-22T06:50:33;8.00;;;3.83;;
7074;SDS011;3578;51.568;6.932;2022-07-22T06:53:01;6.80;;;3.10;;
7074;SDS011;3578;51.568;6.932;2022-07-22T06:55:28;4.77;;;3.53;;
7074;SDS011;3578;51.568;6.932;2022-07-22T06:57:55;6.57;;;3.57;;
7074;SDS011;3578;51.568;6.932;2022-07-22T07:00:22;4.00;;;3.50;;
7074;SDS011;3578;51.568;6.932;2022-07-22T07:02:49;4.37;;;3.03;;
7074;SDS011;3578;51.568;6.932;2022-07-22T07:05:17;5.37;;;3.23;;
7074;SDS011;3578;51.568;6.932;2022-07-22T07:07:44;4.97;;;3.53;;
7074;SDS011;3578;51.568;6.932;2022-07-22T07:10:11;10.37;;;3.00;;
7074;SDS011;3578;51.568;6.932;2022-07-22T07:12:40;6.40;;;3.10;;
7074;SDS011;3578;51.568;6.932;2022-07-22T07:15:07;9.40;;;3.80;;
7074;SDS011;3578;51.568;6.932;2022-07-22T07:17:35;2.80;;;2.53;;
7074;SDS011;3578;51.568;6.932;2022-07-22T07:20:03;4.27;;;3.27;;
7074;SDS011;3578;51.568;6.932;2022-07-22T07:22:33;3.83;;;2.90;;
7074;SDS011;3578;51.568;6.932;2022-07-22T07:25:01;5.80;;;3.43;;
7074;SDS011;3578;51.568;6.932;2022-07-22T07:27:29;7.63;;;3.13;;
7074;SDS011;3578;51.568;6.932;2022-07-22T07:29:56;4.70;;;2.77;;
7074;SDS011;3578;51.568;6.932;2022-07-22T07:32:23;9.70;;;3.20;;
7074;SDS011;3578;51.568;6.932;2022-07-22T07:34:50;6.00;;;3.47;;
7074;SDS011;3578;51.568;6.932;2022-07-22T07:37:18;5.40;;;3.13;;
7074;SDS011;3578;51.568;6.932;2022-07-22T07:39:46;4.83;;;3.37;;
7074;SDS011;3578;51.568;6.932;2022-07-22T07:42:13;3.60;;;3.30;;
7074;SDS011;3578;51.568;6.932;2022-07-22T07:44:40;4.70;;;3.10;;
7074;SDS011;3578;51.568;6.932;2022-07-22T07:47:07;8.50;;;3.40;;
7074;SDS011;3578;51.568;6.932;2022-07-22T07:49:34;6.80;;;3.80;;
7074;SDS011;3578;51.568;6.932;2022-07-22T07:52:01;6.10;;;3.80;;
7074;SDS011;3578;51.568;6.932;2022-07-22T07:54:29;5.30;;;3.20;;
7074;SDS011;3578;51.568;6.932;2022-07-22T07:56:57;5.70;;;3.60;;
7074;SDS011;3578;51.568;6.932;2022-07-22T07:59:24;6.43;;;3.93;;
7074;SDS011;3578;51.568;6.932;2022-07-22T08:01:51;5.30;;;3.20;;
7074;SDS011;3578;51.568;6.932;2022-07-22T08:04:18;6.17;;;2.60;;
7074;SDS011;3578;51.568;6.932;2022-07-22T08:06:45;4.33;;;2.50;;
7074;SDS011;3578;51.568;6.932;2022-07-22T08:09:12;3.73;;;2.50;;
7074;SDS011;3578;51.568;6.932;2022-07-22T08:11:39;4.60;;;2.00;;
7074;SDS011;3578;51.568;6.932;2022-07-22T08:14:08;3.97;;;2.40;;
7074;SDS011;3578;51.568;6.932;2022-07-22T08:16:35;3.23;;;2.30;;
7074;SDS011;3578;51.568;6.932;2022-07-22T08:19:02;3.10;;;2.30;;
7074;SDS011;3578;51.568;6.932;2022-07-22T08:21:30;3.47;;;2.60;;
7074;SDS011;3578;51.568;6.932;2022-07-22T08:23:57;4.90;;;2.90;;
7074;SDS011;3578;51.568;6.932;2022-07-22T08:26:23;3.53;;;3.17;;
7074;SDS011;3578;51.568;6.932;2022-07-22T08:28:51;2.80;;;2.50;;
7074;SDS011;3578;51.568;6.932;2022-07-22T08:31:19;2.20;;;1.47;;
7074;SDS011;3578;51.568;6.932;2022-07-22T08:33:46;1.40;;;1.27;;
7074;SDS011;3578;51.568;6.932;2022-07-22T08:36:13;2.40;;;1.57;;
7074;SDS011;3578;51.568;6.932;2022-07-22T08:38:40;1.60;;;1.50;;
7074;SDS011;3578;51.568;6.932;2022-07-22T08:41:07;3.40;;;1.80;;
7074;SDS011;3578;51.568;6.932;2022-07-22T08:43:36;4.10;;;2.33;;
7074;SDS011;3578;51.568;6.932;2022-07-22T08:46:06;2.20;;;2.00;;
7074;SDS011;3578;51.568;6.932;2022-07-22T08:48:37;2.33;;;2.13;;
7074;SDS011;3578;51.568;6.932;2022-07-22T08:51:04;2.70;;;2.37;;
7074;SDS011;3578;51.568;6.932;2022-07-22T08:53:32;2.20;;;2.00;;
7074;SDS011;3578;51.568;6.932;2022-07-22T08:56:00;2.43;;;2.33;;
7074;SDS011;3578;51.568;6.932;2022-07-22T08:58:27;3.13;;;2.00;;
7074;SDS011;3578;51.568;6.932;2022-07-22T09:01:03;2.43;;;2.23;;
7074;SDS011;3578;51.568;6.932;2022-07-22T09:03:33;3.00;;;2.10;;
7074;SDS011;3578;51.568;6.932;2022-07-22T09:06:10;5.93;;;2.03;;
7074;SDS011;3578;51.568;6.932;2022-07-22T09:08:49;4.23;;;2.83;;
7074;SDS011;3578;51.568;6.932;2022-07-22T09:11:19;4.40;;;2.10;;
7074;SDS011;3578;51.568;6.932;2022-07-22T09:13:49;2.60;;;2.40;;
7074;SDS011;3578;51.568;6.932;2022-07-22T09:19:08;5.63;;;2.80;;
7074;SDS011;3578;51.568;6.932;2022-07-22T09:21:39;2.77;;;2.30;;
7074;SDS011;3578;51.568;6.932;2022-07-22T09:24:08;2.40;;;2.20;;
7074;SDS011;3578;51.568;6.932;2022-07-22T09:26:53;3.40;;;2.23;;
7074;SDS011;3578;51.568;6.932;2022-07-22T09:29:22;2.77;;;2.53;;
7074;SDS011;3578;51.568;6.932;2022-07-22T09:31:49;3.93;;;2.30;;
7074;SDS011;3578;51.568;6.932;2022-07-22T09:34:25;4.10;;;2.73;;
7074;SDS011;3578;51.568;6.932;2022-07-22T09:36:56;2.90;;;2.50;;
7074;SDS011;3578;51.568;6.932;2022-07-22T09:39:27;2.83;;;2.30;;
7074;SDS011;3578;51.568;6.932;2022-07-22T09:41:56;8.00;;;2.80;;
7074;SDS011;3578;51.568;6.932;2022-07-22T09:44:24;3.67;;;2.47;;
7074;SDS011;3578;51.568;6.932;2022-07-22T09:46:51;7.03;;;2.67;;
7074;SDS011;3578;51.568;6.932;2022-07-22T09:49:29;5.60;;;2.70;;
7074;SDS011;3578;51.568;6.932;2022-07-22T09:51:59;8.13;;;3.10;;
7074;SDS011;3578;51.568;6.932;2022-07-22T09:54:27;4.27;;;2.67;;
7074;SDS011;3578;51.568;6.932;2022-07-22T09:56:55;6.37;;;2.97;;
7074;SDS011;3578;51.568;6.932;2022-07-22T09:59:22;5.07;;;2.87;;
7074;SDS011;3578;51.568;6.932;2022-07-22T10:01:51;8.50;;;2.27;;
7074;SDS011;3578;51.568;6.932;2022-07-22T10:04:23;2.83;;;2.10;;
7074;SDS011;3578;51.568;6.932;2022-07-22T10:06:56;8.30;;;2.50;;
7074;SDS011;3578;51.568;6.932;2022-07-22T10:09:25;2.67;;;2.17;;
7074;SDS011;3578;51.568;6.932;2022-07-22T10:11:54;3.70;;;2.33;;
7074;SDS011;3578;51.568;6.932;2022-07-22T10:14:22;4.20;;;2.53;;
7074;SDS011;3578;51.568;6.932;2022-07-22T10:16:51;4.90;;;2.37;;
7074;SDS011;3578;51.568;6.932;2022-07-22T10:19:19;4.70;;;3.03;;
7074;SDS011;3578;51.568;6.932;2022-07-22T10:21:46;4.93;;;3.17;;
7074;SDS011;3578;51.568;6.932;2022-07-22T10:24:13;19.10;;;9.57;;
7074;SDS011;3578;51.568;6.932;2022-07-22T10:26:47;11.90;;;6.17;;
7074;SDS011;3578;51.568;6.932;2022-07-22T10:32:21;3.40;;;2.50;;
7074;SDS011;3578;51.568;6.932;2022-07-22T10:37:48;4.20;;;2.30;;
7074;SDS011;3578;51.568;6.932;2022-07-22T10:40:19;2.93;;;2.70;;
7074;SDS011;3578;51.568;6.932;2022-07-22T10:43:06;5.03;;;2.60;;
7074;SDS011;3578;51.568;6.932;2022-07-22T10:45:37;4.73;;;2.70;;
7074;SDS011;3578;51.568;6.932;2022-07-22T10:48:09;14.10;;;4.67;;
7074;SDS011;3578;51.568;6.932;2022-07-22T10:50:39;10.97;;;4.03;;
7074;SDS011;3578;51.568;6.932;2022-07-22T10:53:41;4.17;;;3.60;;
7074;SDS011;3578;51.568;6.932;2022-07-22T10:56:19;5.13;;;4.63;;
7074;SDS011;3578;51.568;6.932;2022-07-22T10:58:57;4.40;;;3.80;;
7074;SDS011;3578;51.568;6.932;2022-07-22T11:01:34;5.70;;;4.50;;
7074;SDS011;3578;51.568;6.932;2022-07-22T11:04:09;16.53;;;10.57;;
7074;SDS011;3578;51.568;6.932;2022-07-22T11:06:40;5.53;;;4.90;;
7074;SDS011;3578;51.568;6.932;2022-07-22T11:09:09;10.60;;;6.07;;
7074;SDS011;3578;51.568;6.932;2022-07-22T11:11:41;9.40;;;7.50;;
7074;SDS011;3578;51.568;6.932;2022-07-22T11:14:15;6.10;;;5.40;;
7074;SDS011;3578;51.568;6.932;2022-07-22T11:16:46;6.70;;;6.00;;
7074;SDS011;3578;51.568;6.932;2022-07-22T11:19:19;7.70;;;6.23;;
7074;SDS011;3578;51.568;6.932;2022-07-22T11:21:51;11.33;;;8.40;;
7074;SDS011;3578;51.568;6.932;2022-07-22T11:24:21;11.13;;;8.47;;
7074;SDS011;3578;51.568;6.932;2022-07-22T11:26:49;11.30;;;9.13;;
7074;SDS011;3578;51.568;6.932;2022-07-22T11:29:24;10.07;;;8.97;;
7074;SDS011;3578;51.568;6.932;2022-07-22T11:31:53;12.20;;;8.70;;
7074;SDS011;3578;51.568;6.932;2022-07-22T11:34:22;12.57;;;10.70;;
7074;SDS011;3578;51.568;6.932;2022-07-22T11:36:51;16.17;;;10.07;;
7074;SDS011;3578;51.568;6.932;2022-07-22T11:39:20;15.00;;;12.77;;
7074;SDS011;3578;51.568;6.932;2022-07-22T11:41:49;14.37;;;12.77;;
7074;SDS011;3578;51.568;6.932;2022-07-22T11:44:19;17.90;;;12.97;;
7074;SDS011;3578;51.568;6.932;2022-07-22T11:46:48;13.83;;;12.47;;
7074;SDS011;3578;51.568;6.932;2022-07-22T11:49:17;13.53;;;12.23;;
7074;SDS011;3578;51.568;6.932;2022-07-22T11:51:47;14.10;;;12.70;;
7074;SDS011;3578;51.568;6.932;2022-07-22T11:54:14;11.73;;;10.53;;
7074;SDS011;3578;51.568;6.932;2022-07-22T11:56:41;11.40;;;10.20;;
7074;SDS011;3578;51.568;6.932;2022-07-22T11:59:11;11.10;;;10.00;;
7074;SDS011;3578;51.568;6.932;2022-07-22T12:01:41;13.60;;;9.63;;
7074;SDS011;3578;51.568;6.932;2022-07-22T12:04:09;12.10;;;9.63;;
7074;SDS011;3578;51.568;6.932;2022-07-22T12:06:39;12.40;;;10.60;;
7074;SDS011;3578;51.568;6.932;2022-07-22T12:09:09;10.70;;;9.60;;
7074;SDS011;3578;51.568;6.932;2022-07-22T12:11:42;14.63;;;13.13;;
7074;SDS011;3578;51.568;6.932;2022-07-22T12:14:12;9.80;;;8.80;;
7074;SDS011;3578;51.568;6.932;2022-07-22T12:16:43;9.67;;;8.70;;
7074;SDS011;3578;51.568;6.932;2022-07-22T12:19:19;13.53;;;10.27;;
7074;SDS011;3578;51.568;6.932;2022-07-22T12:21:50;10.00;;;9.10;;
7074;SDS011;3578;51.568;6.932;2022-07-22T12:24:25;9.63;;;8.13;;
7074;SDS011;3578;51.568;6.932;2022-07-22T12:26:56;7.70;;;6.90;;
7074;SDS011;3578;51.568;6.932;2022-07-22T12:29:25;10.17;;;6.43;;
7074;SDS011;3578;51.568;6.932;2022-07-22T12:31:58;6.10;;;5.53;;
7074;SDS011;3578;51.568;6.932;2022-07-22T12:34:34;12.60;;;7.20;;
7074;SDS011;3578;51.568;6.932;2022-07-22T12:37:14;8.30;;;7.33;;
7074;SDS011;3578;51.568;6.932;2022-07-22T12:39:56;6.03;;;5.13;;
7074;SDS011;3578;51.568;6.932;2022-07-22T12:42:26;6.67;;;4.00;;
7074;SDS011;3578;51.568;6.932;2022-07-22T12:44:59;4.90;;;4.00;;
7074;SDS011;3578;51.568;6.932;2022-07-22T12:47:48;3.83;;;3.50;;
7074;SDS011;3578;51.568;6.932;2022-07-22T12:50:21;4.87;;;4.03;;
7074;SDS011;3578;51.568;6.932;2022-07-22T12:52:52;5.00;;;4.30;;
7074;SDS011;3578;51.568;6.932;2022-07-22T12:55:21;5.50;;;4.13;;
7074;SDS011;3578;51.568;6.932;2022-07-22T12:57:49;4.20;;;3.53;;
7074;SDS011;3578;51.568;6.932;2022-07-22T13:00:16;4.10;;;3.80;;
7074;SDS011;3578;51.568;6.932;2022-07-22T13:02:45;4.53;;;3.30;;
7074;SDS011;3578;51.568;6.932;2022-07-22T13:05:13;3.83;;;3.40;;
7074;SDS011;3578;51.568;6.932;2022-07-22T13:07:41;3.40;;;3.20;;
7074;SDS011;3578;51.568;6.932;2022-07-22T13:10:09;3.83;;;3.40;;
7074;SDS011;3578;51.568;6.932;2022-07-22T13:12:37;4.40;;;3.57;;
7074;SDS011;3578;51.568;6.932;2022-07-22T13:15:05;3.37;;;3.07;;
7074;SDS011;3578;51.568;6.932;2022-07-22T13:17:33;3.83;;;3.17;;
7074;SDS011;3578;51.568;6.932;2022-07-22T13:20:02;3.30;;;3.10;;
7074;SDS011;3578;51.568;6.932;2022-07-22T13:22:31;3.50;;;3.20;;
7074;SDS011;3578;51.568;6.932;2022-07-22T13:24:59;3.07;;;2.53;;
7074;SDS011;3578;51.568;6.932;2022-07-22T13:27:26;4.70;;;3.13;;
7074;SDS011;3578;51.568;6.932;2022-07-22T13:29:53;3.37;;;3.07;;
7074;SDS011;3578;51.568;6.932;2022-07-22T13:32:20;4.60;;;4.00;;
7074;SDS011;3578;51.568;6.932;2022-07-22T13:34:47;6.00;;;4.40;;
7074;SDS011;3578;51.568;6.932;2022-07-22T13:37:15;8.53;;;4.07;;
7074;SDS011;3578;51.568;6.932;2022-07-22T13:39:42;7.83;;;4.77;;
7074;SDS011;3578;51.568;6.932;2022-07-22T13:42:10;5.03;;;4.53;;
7074;SDS011;3578;51.568;6.932;2022-07-22T13:44:38;5.67;;;4.53;;
7074;SDS011;3578;51.568;6.932;2022-07-22T13:47:05;4.67;;;4.20;;
7074;SDS011;3578;51.568;6.932;2022-07-22T13:49:32;4.67;;;3.50;;
7074;SDS011;3578;51.568;6.932;2022-07-22T13:51:59;7.50;;;4.50;;
7074;SDS011;3578;51.568;6.932;2022-07-22T13:54:28;5.37;;;4.20;;
7074;SDS011;3578;51.568;6.932;2022-07-22T13:56:55;5.27;;;4.30;;
7074;SDS011;3578;51.568;6.932;2022-07-22T13:59:22;10.70;;;4.10;;
7074;SDS011;3578;51.568;6.932;2022-07-22T14:01:50;5.70;;;4.13;;
7074;SDS011;3578;51.568;6.932;2022-07-22T14:04:17;5.33;;;3.93;;
7074;SDS011;3578;51.568;6.932;2022-07-22T14:06:45;5.37;;;4.67;;
7074;SDS011;3578;51.568;6.932;2022-07-22T14:09:12;7.97;;;4.43;;
7074;SDS011;3578;51.568;6.932;2022-07-22T14:11:40;4.97;;;4.47;;
7074;SDS011;3578;51.568;6.932;2022-07-22T14:14:07;8.13;;;4.23;;
7074;SDS011;3578;51.568;6.932;2022-07-22T14:16:34;4.73;;;4.30;;
7074;SDS011;3578;51.568;6.932;2022-07-22T14:19:03;5.70;;;4.37;;
7074;SDS011;3578;51.568;6.932;2022-07-22T14:21:32;10.23;;;4.40;;
7074;SDS011;3578;51.568;6.932;2022-07-22T14:24:01;3.23;;;2.93;;
7074;SDS011;3578;51.568;6.932;2022-07-22T14:26:28;4.90;;;3.53;;
7074;SDS011;3578;51.568;6.932;2022-07-22T14:28:57;8.73;;;3.27;;
7074;SDS011;3578;51.568;6.932;2022-07-22T14:31:24;4.67;;;3.10;;
7074;SDS011;3578;51.568;6.932;2022-07-22T14:33:51;4.67;;;3.00;;
7074;SDS011;3578;51.568;6.932;2022-07-22T14:36:19;5.07;;;2.83;;
7074;SDS011;3578;51.568;6.932;2022-07-22T14:38:47;3.33;;;2.57;;
7074;SDS011;3578;51.568;6.932;2022-07-22T14:41:16;7.13;;;3.47;;
7074;SDS011;3578;51.568;6.932;2022-07-22T14:43:43;4.00;;;2.77;;
7074;SDS011;3578;51.568;6.932;2022-07-22T14:46:12;6.37;;;2.97;;
7074;SDS011;3578;51.568;6.932;2022-07-22T14:48:39;3.27;;;2.80;;
7074;SDS011;3578;51.568;6.932;2022-07-22T14:51:07;3.87;;;2.60;;
7074;SDS011;3578;51.568;6.932;2022-07-22T14:53:34;4.60;;;4.20;;
7074;SDS011;3578;51.568;6.932;2022-07-22T14:56:01;4.77;;;3.00;;
7074;SDS011;3578;51.568;6.932;2022-07-22T14:58:28;3.17;;;2.87;;
7074;SDS011;3578;51.568;6.932;2022-07-22T15:00:55;3.97;;;3.17;;
7074;SDS011;3578;51.568;6.932;2022-07-22T15:03:24;4.20;;;3.37;;
7074;SDS011;3578;51.568;6.932;2022-07-22T15:05:51;3.10;;;2.90;;
7074;SDS011;3578;51.568;6.932;2022-07-22T15:08:18;5.37;;;3.00;;
7074;SDS011;3578;51.568;6.932;2022-07-22T15:10:45;3.60;;;3.30;;
7074;SDS011;3578;51.568;6.932;2022-07-22T15:13:12;6.80;;;3.33;;
7074;SDS011;3578;51.568;6.932;2022-07-22T15:15:39;2.73;;;2.43;;
7074;SDS011;3578;51.568;6.932;2022-07-22T15:18:07;6.00;;;3.30;;
7074;SDS011;3578;51.568;6.932;2022-07-22T15:20:36;3.73;;;3.43;;
7074;SDS011;3578;51.568;6.932;2022-07-22T15:23:03;5.13;;;3.13;;
7074;SDS011;3578;51.568;6.932;2022-07-22T15:25:30;9.53;;;2.60;;
7074;SDS011;3578;51.568;6.932;2022-07-22T15:27:58;5.70;;;2.70;;
7074;SDS011;3578;51.568;6.932;2022-07-22T15:30:26;2.83;;;2.63;;